Date,TemperatureHighF,TemperatureAvgF,TemperatureLowF,DewpointHighF,DewpointAvgF,DewpointLowF,HumidityHigh,HumidityAvg,HumidityLow,PressureMaxIn,PressureMinIn,WindSpeedMaxMPH,WindSpeedAvgMPH,GustSpeedMaxMPH,PrecipitationSumIn
2013-2-1,75,72,68,71,68,64,95,87,78,0.00,0.00,21,8,29,0.10
2013-2-2,78,73,65,73,68,63,95,86,75,0.00,0.00,16,7,18,0.59
2013-2-3,78,72,66,72,66,61,96,82,62,0.00,0.00,23,9,29,0.02
2013-2-4,77,71,62,71,65,58,88,79,68,0.00,0.00,13,8,15,0.00
2013-2-5,80,79,76,74,72,69,84,80,75,0.00,0.00,15,11,16,0.00
2013-2-6,80,79,78,74,72,71,85,80,74,0.00,0.00,17,12,17,0.00
2013-2-7,82,80,78,74,73,72,85,80,74,0.00,0.00,16,12,18,0.00
2013-2-8,82,80,79,74,73,72,83,80,75,0.00,0.00,13,8,15,0.00
2013-2-9,80,78,70,74,72,68,93,81,76,0.00,0.00,15,9,17,0.00
2013-2-10,81,80,79,74,73,71,82,79,73,0.00,0.00,20,15,24,0.00
2013-2-11,81,80,79,75,73,71,84,79,75,0.00,0.00,22,16,24,0.00
2013-2-12,82,80,79,75,74,73,86,81,76,0.00,0.00,19,14,21,0.00
2013-2-13,82,80,79,75,74,73,86,81,73,0.00,0.00,16,11,19,0.00
2013-2-14,82,80,79,76,75,73,87,82,77,0.00,0.00,19,12,22,0.00
2013-2-15,81,78,73,75,73,69,94,84,77,0.00,0.00,11,5,14,0.07
2013-2-16,81,72,62,72,64,55,95,76,54,0.00,0.00,25,9,31,0.00
2013-2-17,74,68,57,61,56,53,86,67,53,0.00,0.00,22,9,24,0.00
2013-2-18,76,73,72,65,61,55,73,66,52,0.00,0.00,24,17,28,0.00
2013-2-19,79,76,66,74,70,62,93,82,67,0.00,0.00,17,11,19,0.68
2013-2-20,79,78,72,74,72,69,92,82,78,0.00,0.00,20,13,21,0.00
2013-2-21,81,80,79,74,74,73,85,81,77,0.00,0.00,16,14,18,0.00
2013-2-22,82,80,79,75,74,73,84,80,74,0.00,0.00,18,14,23,0.00
2013-2-23,82,80,79,75,73,72,85,79,70,0.00,0.00,21,14,22,0.00
2013-2-24,82,80,79,74,73,72,84,79,73,0.00,0.00,20,13,24,0.00
2013-2-25,82,80,79,74,73,71,83,78,73,0.00,0.00,24,16,29,0.00
2013-2-26,82,79,71,77,74,69,95,86,79,0.00,0.00,16,10,19,0.15
2013-2-27,82,78,71,77,75,70,97,90,81,0.00,0.00,15,7,18,0.01
2013-2-28,80,76,72,76,73,71,97,90,82,0.00,0.00,11,5,18,0.64